sensor_id;sensor_type;location;lat;lon;timestamp;P1;durP1;ratioP1;P2;durP2;ratioP2
65996;SDS011;52765;52.258;21.052;2023-01-08T00:01:25;51.60;;;22.45;;
65996;SDS011;52765;52.258;21.052;2023-01-08T00:03:51;48.92;;;23.08;;
65996;SDS011;52765;52.258;21.052;2023-01-08T00:06:17;51.95;;;23.13;;
65996;SDS011;52765;52.258;21.052;2023-01-08T00:08:45;49.97;;;23.27;;
65996;SDS011;52765;52.258;21.052;2023-01-08T00:11:11;51.20;;;23.48;;
65996;SDS011;52765;52.258;21.052;2023-01-08T00:13:37;51.90;;;23.17;;
65996;SDS011;52765;52.258;21.052;2023-01-08T00:16:09;51.85;;;22.80;;
65996;SDS011;52765;52.258;21.052;2023-01-08T00:18:45;44.67;;;21.67;;
65996;SDS011;52765;52.258;21.052;2023-01-08T00:21:11;51.55;;;22.45;;
65996;SDS011;52765;52.258;21.052;2023-01-08T00:23:37;48.15;;;21.98;;
65996;SDS011;52765;52.258;21.052;2023-01-08T00:26:04;48.63;;;22.52;;
65996;SDS011;52765;52.258;21.052;2023-01-08T00:28:32;48.33;;;21.73;;
65996;SDS011;52765;52.258;21.052;2023-01-08T00:30:58;51.35;;;22.65;;
65996;SDS011;52765;52.258;21.052;2023-01-08T00:33:25;46.78;;;21.25;;
65996;SDS011;52765;52.258;21.052;2023-01-08T00:35:57;53.35;;;21.90;;
65996;SDS011;52765;52.258;21.052;2023-01-08T00:38:27;47.47;;;20.38;;
65996;SDS011;52765;52.258;21.052;2023-01-08T00:40:53;46.78;;;21.83;;
65996;SDS011;52765;52.258;21.052;2023-01-08T00:43:19;48.58;;;22.20;;
65996;SDS011;52765;52.258;21.052;2023-01-08T00:45:45;48.67;;;21.98;;
65996;SDS011;52765;52.258;21.052;2023-01-08T00:48:10;44.53;;;21.40;;
65996;SDS011;52765;52.258;21.052;2023-01-08T00:50:39;50.20;;;21.55;;
65996;SDS011;52765;52.258;21.052;2023-01-08T00:53:04;46.70;;;22.33;;
65996;SDS011;52765;52.258;21.052;2023-01-08T00:55:30;47.05;;;21.27;;
65996;SDS011;52765;52.258;21.052;2023-01-08T00:57:56;43.60;;;20.27;;
65996;SDS011;52765;52.258;21.052;2023-01-08T01:00:22;46.92;;;20.42;;
65996;SDS011;52765;52.258;21.052;2023-01-08T01:02:48;43.85;;;20.15;;
65996;SDS011;52765;52.258;21.052;2023-01-08T01:05:14;47.42;;;20.95;;
65996;SDS011;52765;52.258;21.052;2023-01-08T01:07:43;50.60;;;21.52;;
65996;SDS011;52765;52.258;21.052;2023-01-08T01:10:09;45.97;;;21.63;;
65996;SDS011;52765;52.258;21.052;2023-01-08T01:12:38;48.63;;;20.95;;
65996;SDS011;52765;52.258;21.052;2023-01-08T01:15:05;39.45;;;19.83;;
65996;SDS011;52765;52.258;21.052;2023-01-08T01:17:33;47.13;;;21.02;;
65996;SDS011;52765;52.258;21.052;2023-01-08T01:20:03;37.58;;;19.05;;
65996;SDS011;52765;52.258;21.052;2023-01-08T01:22:32;44.28;;;21.02;;
65996;SDS011;52765;52.258;21.052;2023-01-08T01:24:58;46.20;;;20.55;;
65996;SDS011;52765;52.258;21.052;2023-01-08T01:27:24;38.83;;;20.17;;
65996;SDS011;52765;52.258;21.052;2023-01-08T01:29:50;42.38;;;20.23;;
65996;SDS011;52765;52.258;21.052;2023-01-08T01:32:16;36.70;;;18.88;;
65996;SDS011;52765;52.258;21.052;2023-01-08T01:34:42;43.72;;;19.98;;
65996;SDS011;52765;52.258;21.052;2023-01-08T01:37:08;39.50;;;20.13;;
65996;SDS011;52765;52.258;21.052;2023-01-08T01:39:36;37.92;;;19.88;;
65996;SDS011;52765;52.258;21.052;2023-01-08T01:42:02;36.95;;;18.05;;
65996;SDS011;52765;52.258;21.052;2023-01-08T01:47:21;36.75;;;18.60;;
65996;SDS011;52765;52.258;21.052;2023-01-08T01:50:04;33.25;;;17.58;;
65996;SDS011;52765;52.258;21.052;2023-01-08T01:52:37;38.92;;;18.65;;
65996;SDS011;52765;52.258;21.052;2023-01-08T01:55:06;36.88;;;18.23;;
65996;SDS011;52765;52.258;21.052;2023-01-08T01:57:34;36.50;;;18.63;;
65996;SDS011;52765;52.258;21.052;2023-01-08T02:00:02;38.13;;;18.83;;
65996;SDS011;52765;52.258;21.052;2023-01-08T02:02:30;37.50;;;18.95;;
65996;SDS011;52765;52.258;21.052;2023-01-08T02:04:59;37.15;;;18.88;;
65996;SDS011;52765;52.258;21.052;2023-01-08T02:10:03;39.95;;;18.10;;
65996;SDS011;52765;52.258;21.052;2023-01-08T02:12:33;36.30;;;18.92;;
65996;SDS011;52765;52.258;21.052;2023-01-08T02:18:08;35.97;;;16.90;;
65996;SDS011;52765;52.258;21.052;2023-01-08T02:20:43;35.90;;;17.80;;
65996;SDS011;52765;52.258;21.052;2023-01-08T02:25:57;35.22;;;18.52;;
65996;SDS011;52765;52.258;21.052;2023-01-08T02:28:27;35.47;;;18.65;;
65996;SDS011;52765;52.258;21.052;2023-01-08T02:30:56;32.05;;;16.83;;
65996;SDS011;52765;52.258;21.052;2023-01-08T02:33:22;30.33;;;15.85;;
65996;SDS011;52765;52.258;21.052;2023-01-08T02:38:41;29.20;;;15.05;;
65996;SDS011;52765;52.258;21.052;2023-01-08T02:41:32;30.10;;;14.63;;
65996;SDS011;52765;52.258;21.052;2023-01-08T02:44:02;27.42;;;14.13;;
65996;SDS011;52765;52.258;21.052;2023-01-08T02:46:29;26.23;;;13.00;;
65996;SDS011;52765;52.258;21.052;2023-01-08T02:49:03;30.13;;;13.38;;
65996;SDS011;52765;52.258;21.052;2023-01-08T02:51:44;26.17;;;13.63;;
65996;SDS011;52765;52.258;21.052;2023-01-08T02:54:15;27.05;;;12.75;;
65996;SDS011;52765;52.258;21.052;2023-01-08T02:56:46;26.75;;;12.98;;
65996;SDS011;52765;52.258;21.052;2023-01-08T02:59:17;24.65;;;12.32;;
65996;SDS011;52765;52.258;21.052;2023-01-08T03:01:44;24.90;;;12.77;;
65996;SDS011;52765;52.258;21.052;2023-01-08T03:04:15;24.48;;;12.30;;
65996;SDS011;52765;52.258;21.052;2023-01-08T03:06:46;29.60;;;12.80;;
65996;SDS011;52765;52.258;21.052;2023-01-08T03:09:12;22.35;;;11.98;;
65996;SDS011;52765;52.258;21.052;2023-01-08T03:11:51;23.35;;;11.55;;
65996;SDS011;52765;52.258;21.052;2023-01-08T03:14:26;22.75;;;11.68;;
65996;SDS011;52765;52.258;21.052;2023-01-08T03:17:02;21.77;;;11.07;;
65996;SDS011;52765;52.258;21.052;2023-01-08T03:19:43;20.33;;;11.60;;
65996;SDS011;52765;52.258;21.052;2023-01-08T03:22:33;26.90;;;11.35;;
65996;SDS011;52765;52.258;21.052;2023-01-08T03:25:04;22.75;;;11.13;;
65996;SDS011;52765;52.258;21.052;2023-01-08T03:27:31;24.50;;;11.15;;
65996;SDS011;52765;52.258;21.052;2023-01-08T03:30:02;23.35;;;10.77;;
65996;SDS011;52765;52.258;21.052;2023-01-08T03:32:30;20.05;;;10.40;;
65996;SDS011;52765;52.258;21.052;2023-01-08T03:34:57;19.20;;;11.15;;
65996;SDS011;52765;52.258;21.052;2023-01-08T03:37:26;20.45;;;11.50;;
65996;SDS011;52765;52.258;21.052;2023-01-08T03:40:04;22.30;;;10.95;;
65996;SDS011;52765;52.258;21.052;2023-01-08T03:42:31;22.63;;;11.00;;
65996;SDS011;52765;52.258;21.052;2023-01-08T03:44:57;21.88;;;10.48;;
65996;SDS011;52765;52.258;21.052;2023-01-08T03:47:23;19.67;;;10.25;;
65996;SDS011;52765;52.258;21.052;2023-01-08T03:49:51;25.63;;;10.88;;
65996;SDS011;52765;52.258;21.052;2023-01-08T03:52:20;21.95;;;11.05;;
65996;SDS011;52765;52.258;21.052;2023-01-08T03:54:50;21.33;;;9.68;;
65996;SDS011;52765;52.258;21.052;2023-01-08T03:57:15;20.67;;;9.70;;
65996;SDS011;52765;52.258;21.052;2023-01-08T03:59:41;17.23;;;9.05;;
65996;SDS011;52765;52.258;21.052;2023-01-08T04:02:09;20.90;;;9.98;;
65996;SDS011;52765;52.258;21.052;2023-01-08T04:04:34;20.58;;;10.27;;
65996;SDS011;52765;52.258;21.052;2023-01-08T04:07:00;21.52;;;9.52;;
65996;SDS011;52765;52.258;21.052;2023-01-08T04:09:26;20.13;;;10.00;;
65996;SDS011;52765;52.258;21.052;2023-01-08T04:11:51;19.50;;;9.40;;
65996;SDS011;52765;52.258;21.052;2023-01-08T04:14:17;18.17;;;9.38;;
65996;SDS011;52765;52.258;21.052;2023-01-08T04:16:43;20.33;;;10.15;;
65996;SDS011;52765;52.258;21.052;2023-01-08T04:19:12;19.65;;;9.45;;
65996;SDS011;52765;52.258;21.052;2023-01-08T04:21:38;25.23;;;9.60;;
65996;SDS011;52765;52.258;21.052;2023-01-08T04:24:04;17.73;;;9.00;;
65996;SDS011;52765;52.258;21.052;2023-01-08T04:26:29;23.90;;;10.07;;
65996;SDS011;52765;52.258;21.052;2023-01-08T04:28:55;19.58;;;8.85;;
65996;SDS011;52765;52.258;21.052;2023-01-08T04:31:20;19.23;;;9.23;;
65996;SDS011;52765;52.258;21.052;2023-01-08T04:33:46;27.95;;;11.70;;
65996;SDS011;52765;52.258;21.052;2023-01-08T04:36:11;25.08;;;12.35;;
65996;SDS011;52765;52.258;21.052;2023-01-08T04:38:37;19.90;;;11.05;;
65996;SDS011;52765;52.258;21.052;2023-01-08T04:41:02;20.42;;;9.65;;
65996;SDS011;52765;52.258;21.052;2023-01-08T04:43:29;20.67;;;9.10;;
65996;SDS011;52765;52.258;21.052;2023-01-08T04:46:02;17.88;;;8.93;;
65996;SDS011;52765;52.258;21.052;2023-01-08T04:48:28;18.83;;;8.48;;
65996;SDS011;52765;52.258;21.052;2023-01-08T04:50:56;18.08;;;9.05;;
65996;SDS011;52765;52.258;21.052;2023-01-08T04:53:23;19.98;;;8.82;;
65996;SDS011;52765;52.258;21.052;2023-01-08T04:55:48;19.67;;;9.55;;
65996;SDS011;52765;52.258;21.052;2023-01-08T04:58:14;23.00;;;9.15;;
65996;SDS011;52765;52.258;21.052;2023-01-08T05:00:41;20.77;;;9.18;;
65996;SDS011;52765;52.258;21.052;2023-01-08T05:03:07;20.45;;;9.07;;
65996;SDS011;52765;52.258;21.052;2023-01-08T05:05:32;15.85;;;8.25;;
65996;SDS011;52765;52.258;21.052;2023-01-08T05:07:58;16.83;;;8.10;;
65996;SDS011;52765;52.258;21.052;2023-01-08T05:10:24;17.05;;;8.18;;
65996;SDS011;52765;52.258;21.052;2023-01-08T05:12:49;19.15;;;8.70;;
65996;SDS011;52765;52.258;21.052;2023-01-08T05:15:15;17.98;;;8.32;;
65996;SDS011;52765;52.258;21.052;2023-01-08T05:17:40;19.40;;;8.57;;
65996;SDS011;52765;52.258;21.052;2023-01-08T05:20:06;22.35;;;8.77;;
65996;SDS011;52765;52.258;21.052;2023-01-08T05:22:32;18.88;;;8.90;;
65996;SDS011;52765;52.258;21.052;2023-01-08T05:24:57;16.98;;;8.63;;
65996;SDS011;52765;52.258;21.052;2023-01-08T05:27:23;18.42;;;8.52;;
65996;SDS011;52765;52.258;21.052;2023-01-08T05:29:48;19.92;;;8.02;;
65996;SDS011;52765;52.258;21.052;2023-01-08T05:32:16;19.27;;;8.32;;
65996;SDS011;52765;52.258;21.052;2023-01-08T05:34:43;14.13;;;7.55;;
65996;SDS011;52765;52.258;21.052;2023-01-08T05:37:10;14.18;;;7.25;;
65996;SDS011;52765;52.258;21.052;2023-01-08T05:39:36;15.38;;;7.28;;
65996;SDS011;52765;52.258;21.052;2023-01-08T05:42:02;16.20;;;7.65;;
65996;SDS011;52765;52.258;21.052;2023-01-08T05:44:28;20.23;;;7.85;;
65996;SDS011;52765;52.258;21.052;2023-01-08T05:46:53;14.10;;;7.50;;
65996;SDS011;52765;52.258;21.052;2023-01-08T05:49:19;14.38;;;7.72;;
65996;SDS011;52765;52.258;21.052;2023-01-08T05:51:48;17.25;;;7.07;;
65996;SDS011;52765;52.258;21.052;2023-01-08T05:54:14;15.90;;;8.23;;
65996;SDS011;52765;52.258;21.052;2023-01-08T05:56:40;14.07;;;7.40;;
65996;SDS011;52765;52.258;21.052;2023-01-08T05:59:09;16.25;;;8.30;;
65996;SDS011;52765;52.258;21.052;2023-01-08T06:01:35;16.15;;;8.30;;
65996;SDS011;52765;52.258;21.052;2023-01-08T06:04:01;22.00;;;10.48;;
65996;SDS011;52765;52.258;21.052;2023-01-08T06:06:26;18.55;;;8.63;;
65996;SDS011;52765;52.258;21.052;2023-01-08T06:08:52;18.02;;;8.52;;
65996;SDS011;52765;52.258;21.052;2023-01-08T06:11:17;18.15;;;8.55;;
65996;SDS011;52765;52.258;21.052;2023-01-08T06:13:43;17.92;;;8.88;;
65996;SDS011;52765;52.258;21.052;2023-01-08T06:16:08;22.65;;;8.93;;
65996;SDS011;52765;52.258;21.052;2023-01-08T06:18:34;16.50;;;8.07;;
65996;SDS011;52765;52.258;21.052;2023-01-08T06:21:01;19.73;;;8.98;;
65996;SDS011;52765;52.258;21.052;2023-01-08T06:23:29;14.85;;;7.60;;
65996;SDS011;52765;52.258;21.052;2023-01-08T06:25:56;19.73;;;8.60;;
65996;SDS011;52765;52.258;21.052;2023-01-08T06:28:24;16.27;;;8.90;;
65996;SDS011;52765;52.258;21.052;2023-01-08T06:30:49;17.95;;;9.02;;
65996;SDS011;52765;52.258;21.052;2023-01-08T06:33:15;15.13;;;8.43;;
65996;SDS011;52765;52.258;21.052;2023-01-08T06:35:41;17.17;;;7.85;;
65996;SDS011;52765;52.258;21.052;2023-01-08T06:38:06;16.70;;;7.63;;
65996;SDS011;52765;52.258;21.052;2023-01-08T06:40:32;16.40;;;8.82;;
65996;SDS011;52765;52.258;21.052;2023-01-08T06:43:01;18.55;;;8.50;;
65996;SDS011;52765;52.258;21.052;2023-01-08T06:45:27;17.67;;;8.38;;
65996;SDS011;52765;52.258;21.052;2023-01-08T06:47:52;16.52;;;8.13;;
65996;SDS011;52765;52.258;21.052;2023-01-08T06:50:18;17.70;;;8.80;;
65996;SDS011;52765;52.258;21.052;2023-01-08T06:52:43;18.90;;;8.73;;
65996;SDS011;52765;52.258;21.052;2023-01-08T06:55:16;17.88;;;8.40;;
65996;SDS011;52765;52.258;21.052;2023-01-08T06:57:41;17.23;;;8.38;;
65996;SDS011;52765;52.258;21.052;2023-01-08T07:00:07;19.00;;;8.65;;
65996;SDS011;52765;52.258;21.052;2023-01-08T07:02:33;19.73;;;8.68;;
65996;SDS011;52765;52.258;21.052;2023-01-08T07:04:58;18.00;;;8.30;;
65996;SDS011;52765;52.258;21.052;2023-01-08T07:07:23;14.90;;;8.38;;
65996;SDS011;52765;52.258;21.052;2023-01-08T07:09:49;18.88;;;8.48;;
65996;SDS011;52765;52.258;21.052;2023-01-08T07:12:14;19.58;;;9.43;;
65996;SDS011;52765;52.258;21.052;2023-01-08T07:14:40;18.88;;;8.85;;
65996;SDS011;52765;52.258;21.052;2023-01-08T07:17:06;17.58;;;8.35;;
65996;SDS011;52765;52.258;21.052;2023-01-08T07:19:32;20.98;;;9.65;;
65996;SDS011;52765;52.258;21.052;2023-01-08T07:22:00;21.38;;;9.48;;
65996;SDS011;52765;52.258;21.052;2023-01-08T07:24:26;23.50;;;9.80;;
65996;SDS011;52765;52.258;21.052;2023-01-08T07:26:52;21.23;;;9.55;;
65996;SDS011;52765;52.258;21.052;2023-01-08T07:29:18;20.75;;;9.93;;
65996;SDS011;52765;52.258;21.052;2023-01-08T07:31:44;16.90;;;9.88;;
65996;SDS011;52765;52.258;21.052;2023-01-08T07:34:09;21.23;;;10.02;;
65996;SDS011;52765;52.258;21.052;2023-01-08T07:36:35;20.50;;;10.00;;
65996;SDS011;52765;52.258;21.052;2023-01-08T07:39:00;18.38;;;9.70;;
65996;SDS011;52765;52.258;21.052;2023-01-08T07:41:26;22.20;;;10.70;;
65996;SDS011;52765;52.258;21.052;2023-01-08T07:43:52;21.35;;;10.30;;
65996;SDS011;52765;52.258;21.052;2023-01-08T07:46:17;20.85;;;10.43;;
65996;SDS011;52765;52.258;21.052;2023-01-08T07:48:43;24.35;;;10.75;;
65996;SDS011;52765;52.258;21.052;2023-01-08T07:51:08;33.45;;;14.55;;
65996;SDS011;52765;52.258;21.052;2023-01-08T07:53:35;25.92;;;11.85;;
65996;SDS011;52765;52.258;21.052;2023-01-08T07:56:01;25.05;;;11.90;;
65996;SDS011;52765;52.258;21.052;2023-01-08T07:58:29;25.40;;;10.38;;
65996;SDS011;52765;52.258;21.052;2023-01-08T08:00:55;18.77;;;9.55;;
65996;SDS011;52765;52.258;21.052;2023-01-08T08:03:20;20.45;;;9.65;;
65996;SDS011;52765;52.258;21.052;2023-01-08T08:05:49;19.60;;;10.02;;
65996;SDS011;52765;52.258;21.052;2023-01-08T08:08:16;21.38;;;9.52;;
65996;SDS011;52765;52.258;21.052;2023-01-08T08:10:42;23.52;;;10.32;;
65996;SDS011;52765;52.258;21.052;2023-01-08T08:13:11;23.02;;;10.43;;
65996;SDS011;52765;52.258;21.052;2023-01-08T08:15:37;24.45;;;10.65;;
65996;SDS011;52765;52.258;21.052;2023-01-08T08:18:06;26.45;;;9.60;;
65996;SDS011;52765;52.258;21.052;2023-01-08T08:20:32;21.33;;;10.23;;
65996;SDS011;52765;52.258;21.052;2023-01-08T08:23:01;19.85;;;9.98;;
65996;SDS011;52765;52.258;21.052;2023-01-08T08:25:29;21.42;;;10.68;;
65996;SDS011;52765;52.258;21.052;2023-01-08T08:27:58;22.10;;;11.20;;
65996;SDS011;52765;52.258;21.052;2023-01-08T08:30:25;26.90;;;10.95;;
65996;SDS011;52765;52.258;21.052;2023-01-08T08:32:52;21.10;;;9.65;;
65996;SDS011;52765;52.258;21.052;2023-01-08T08:35:18;21.45;;;10.18;;
65996;SDS011;52765;52.258;21.052;2023-01-08T08:37:44;24.48;;;10.02;;
65996;SDS011;52765;52.258;21.052;2023-01-08T08:40:10;20.05;;;10.85;;
65996;SDS011;52765;52.258;21.052;2023-01-08T08:42:38;26.45;;;11.05;;
65996;SDS011;52765;52.258;21.052;2023-01-08T08:45:04;25.30;;;10.48;;
65996;SDS011;52765;52.258;21.052;2023-01-08T08:47:30;20.90;;;10.15;;
65996;SDS011;52765;52.258;21.052;2023-01-08T08:49:55;23.20;;;10.55;;
65996;SDS011;52765;52.258;21.052;2023-01-08T08:52:21;24.10;;;11.27;;
65996;SDS011;52765;52.258;21.052;2023-01-08T08:54:46;23.17;;;10.52;;
65996;SDS011;52765;52.258;21.052;2023-01-08T08:57:14;22.60;;;10.65;;
65996;SDS011;52765;52.258;21.052;2023-01-08T08:59:40;26.20;;;11.77;;
65996;SDS011;52765;52.258;21.052;2023-01-08T09:02:08;19.85;;;10.27;;
65996;SDS011;52765;52.258;21.052;2023-01-08T09:04:35;21.77;;;10.43;;
65996;SDS011;52765;52.258;21.052;2023-01-08T09:07:01;20.98;;;11.07;;
65996;SDS011;52765;52.258;21.052;2023-01-08T09:09:26;22.02;;;10.45;;
65996;SDS011;52765;52.258;21.052;2023-01-08T09:11:52;22.35;;;10.57;;
65996;SDS011;52765;52.258;21.052;2023-01-08T09:14:18;23.48;;;10.88;;
65996;SDS011;52765;52.258;21.052;2023-01-08T09:16:44;19.77;;;11.10;;
65996;SDS011;52765;52.258;21.052;2023-01-08T09:19:19;23.52;;;11.55;;
65996;SDS011;52765;52.258;21.052;2023-01-08T09:21:45;25.88;;;12.10;;
65996;SDS011;52765;52.258;21.052;2023-01-08T09:24:10;25.48;;;11.30;;
65996;SDS011;52765;52.258;21.052;2023-01-08T09:26:36;23.55;;;11.32;;
65996;SDS011;52765;52.258;21.052;2023-01-08T09:29:01;26.38;;;12.20;;
65996;SDS011;52765;52.258;21.052;2023-01-08T09:31:27;23.88;;;11.95;;
65996;SDS011;52765;52.258;21.052;2023-01-08T09:33:53;20.92;;;10.55;;
65996;SDS011;52765;52.258;21.052;2023-01-08T09:36:18;21.95;;;10.73;;
65996;SDS011;52765;52.258;21.052;2023-01-08T09:38:46;20.35;;;10.10;;
65996;SDS011;52765;52.258;21.052;2023-01-08T09:41:46;24.55;;;10.85;;
65996;SDS011;52765;52.258;21.052;2023-01-08T09:44:10;23.70;;;11.18;;
65996;SDS011;52765;52.258;21.052;2023-01-08T09:46:40;18.95;;;10.27;;
65996;SDS011;52765;52.258;21.052;2023-01-08T09:49:05;23.88;;;11.63;;
65996;SDS011;52765;52.258;21.052;2023-01-08T09:51:35;23.77;;;11.52;;
65996;SDS011;52765;52.258;21.052;2023-01-08T09:54:03;25.30;;;10.85;;
65996;SDS011;52765;52.258;21.052;2023-01-08T09:56:32;21.63;;;11.60;;
65996;SDS011;52765;52.258;21.052;2023-01-08T09:58:59;20.48;;;10.23;;
65996;SDS011;52765;52.258;21.052;2023-01-08T10:01:28;21.42;;;11.18;;
65996;SDS011;52765;52.258;21.052;2023-01-08T10:06:45;21.80;;;10.15;;
65996;SDS011;52765;52.258;21.052;2023-01-08T10:09:13;25.48;;;10.43;;
65996;SDS011;52765;52.258;21.052;2023-01-08T10:11:48;21.50;;;9.95;;
65996;SDS011;52765;52.258;21.052;2023-01-08T10:14:20;19.23;;;10.55;;
65996;SDS011;52765;52.258;21.052;2023-01-08T10:16:50;21.27;;;10.93;;
65996;SDS011;52765;52.258;21.052;2023-01-08T10:19:20;22.08;;;10.73;;
65996;SDS011;52765;52.258;21.052;2023-01-08T10:21:46;26.23;;;12.00;;
65996;SDS011;52765;52.258;21.052;2023-01-08T10:24:12;21.83;;;11.07;;
65996;SDS011;52765;52.258;21.052;2023-01-08T10:26:38;27.00;;;11.45;;
65996;SDS011;52765;52.258;21.052;2023-01-08T10:29:07;25.38;;;12.57;;
65996;SDS011;52765;52.258;21.052;2023-01-08T10:31:37;21.77;;;11.52;;
65996;SDS011;52765;52.258;21.052;2023-01-08T10:34:10;24.00;;;13.82;;
65996;SDS011;52765;52.258;21.052;2023-01-08T10:36:42;25.05;;;12.20;;
65996;SDS011;52765;52.258;21.052;2023-01-08T10:39:12;24.60;;;12.15;;
65996;SDS011;52765;52.258;21.052;2023-01-08T10:41:45;23.50;;;12.18;;
65996;SDS011;52765;52.258;21.052;2023-01-08T10:44:16;25.95;;;12.63;;
65996;SDS011;52765;52.258;21.052;2023-01-08T10:46:43;27.63;;;13.40;;
65996;SDS011;52765;52.258;21.052;2023-01-08T10:49:29;24.85;;;13.13;;
65996;SDS011;52765;52.258;21.052;2023-01-08T10:52:03;30.75;;;14.15;;
65996;SDS011;52765;52.258;21.052;2023-01-08T10:54:48;28.98;;;14.43;;
65996;SDS011;52765;52.258;21.052;2023-01-08T10:59:49;28.25;;;14.15;;
65996;SDS011;52765;52.258;21.052;2023-01-08T11:02:47;30.52;;;14.40;;
65996;SDS011;52765;52.258;21.052;2023-01-08T11:05:06;28.70;;;14.38;;
65996;SDS011;52765;52.258;21.052;2023-01-08T11:07:36;27.70;;;14.75;;
65996;SDS011;52765;52.258;21.052;2023-01-08T11:10:04;28.55;;;14.60;;
65996;SDS011;52765;52.258;21.052;2023-01-08T11:15:02;26.75;;;14.68;;
65996;SDS011;52765;52.258;21.052;2023-01-08T11:17:43;29.90;;;14.23;;
65996;SDS011;52765;52.258;21.052;2023-01-08T11:20:19;28.15;;;13.90;;
65996;SDS011;52765;52.258;21.052;2023-01-08T11:23:04;30.40;;;15.25;;
65996;SDS011;52765;52.258;21.052;2023-01-08T11:25:54;27.48;;;14.43;;
65996;SDS011;52765;52.258;21.052;2023-01-08T11:31:32;30.98;;;13.80;;
65996;SDS011;52765;52.258;21.052;2023-01-08T11:37:19;28.35;;;13.57;;
65996;SDS011;52765;52.258;21.052;2023-01-08T11:40:09;27.60;;;12.90;;
65996;SDS011;52765;52.258;21.052;2023-01-08T11:43:00;29.48;;;13.00;;
65996;SDS011;52765;52.258;21.052;2023-01-08T11:48:26;24.90;;;11.93;;
65996;SDS011;52765;52.258;21.052;2023-01-08T12:03:41;25.02;;;12.90;;
65996;SDS011;52765;52.258;21.052;2023-01-08T12:11:38;29.35;;;13.63;;
65996;SDS011;52765;52.258;21.052;2023-01-08T12:22:46;27.92;;;13.45;;
65996;SDS011;52765;52.258;21.052;2023-01-08T12:25:23;29.52;;;14.35;;
65996;SDS011;52765;52.258;21.052;2023-01-08T12:34:14;31.20;;;13.38;;
65996;SDS011;52765;52.258;21.052;2023-01-08T12:36:45;29.98;;;13.45;;
65996;SDS011;52765;52.258;21.052;2023-01-08T12:39:18;29.05;;;13.20;;
65996;SDS011;52765;52.258;21.052;2023-01-08T12:41:48;24.10;;;12.13;;
65996;SDS011;52765;52.258;21.052;2023-01-08T12:44:21;24.33;;;13.65;;
65996;SDS011;52765;52.258;21.052;2023-01-08T12:46:50;22.83;;;12.47;;
65996;SDS011;52765;52.258;21.052;2023-01-08T12:49:29;27.25;;;12.93;;
65996;SDS011;52765;52.258;21.052;2023-01-08T12:52:17;29.58;;;14.13;;
65996;SDS011;52765;52.258;21.052;2023-01-08T12:54:54;24.42;;;12.43;;
65996;SDS011;52765;52.258;21.052;2023-01-08T12:57:28;29.05;;;13.75;;
65996;SDS011;52765;52.258;21.052;2023-01-08T13:02:53;29.88;;;13.65;;
65996;SDS011;52765;52.258;21.052;2023-01-08T13:08:01;31.83;;;14.63;;
65996;SDS011;52765;52.258;21.052;2023-01-08T13:13:01;25.95;;;13.60;;
65996;SDS011;52765;52.258;21.052;2023-01-08T13:15:28;29.25;;;14.55;;
65996;SDS011;52765;52.258;21.052;2023-01-08T13:17:57;29.30;;;15.75;;
65996;SDS011;52765;52.258;21.052;2023-01-08T13:20:40;29.98;;;15.50;;
65996;SDS011;52765;52.258;21.052;2023-01-08T13:23:05;33.40;;;14.60;;
65996;SDS011;52765;52.258;21.052;2023-01-08T13:25:34;32.75;;;16.27;;
65996;SDS011;52765;52.258;21.052;2023-01-08T13:28:24;33.55;;;16.05;;
65996;SDS011;52765;52.258;21.052;2023-01-08T13:30:52;32.10;;;15.98;;
65996;SDS011;52765;52.258;21.052;2023-01-08T13:36:28;39.63;;;15.55;;
65996;SDS011;52765;52.258;21.052;2023-01-08T13:41:40;34.67;;;15.38;;
65996;SDS011;52765;52.258;21.052;2023-01-08T13:47:03;32.95;;;15.68;;
65996;SDS011;52765;52.258;21.052;2023-01-08T13:49:46;34.92;;;15.90;;
65996;SDS011;52765;52.258;21.052;2023-01-08T13:58:16;32.28;;;14.45;;
65996;SDS011;52765;52.258;21.052;2023-01-08T14:00:54;30.55;;;14.82;;
65996;SDS011;52765;52.258;21.052;2023-01-08T14:03:25;34.28;;;15.63;;
65996;SDS011;52765;52.258;21.052;2023-01-08T14:08:35;35.50;;;15.95;;
65996;SDS011;52765;52.258;21.052;2023-01-08T14:11:13;30.88;;;15.30;;
65996;SDS011;52765;52.258;21.052;2023-01-08T14:13:45;33.10;;;16.55;;
65996;SDS011;52765;52.258;21.052;2023-01-08T14:16:14;34.05;;;15.73;;
65996;SDS011;52765;52.258;21.052;2023-01-08T14:18:42;37.22;;;15.32;;
65996;SDS011;52765;52.258;21.052;2023-01-08T14:21:12;33.45;;;15.43;;
65996;SDS011;52765;52.258;21.052;2023-01-08T14:23:46;37.83;;;16.60;;
65996;SDS011;52765;52.258;21.052;2023-01-08T14:26:22;37.72;;;16.70;;
65996;SDS011;52765;52.258;21.052;2023-01-08T14:29:01;33.13;;;16.17;;
65996;SDS011;52765;52.258;21.052;2023-01-08T14:31:50;41.65;;;17.40;;
65996;SDS011;52765;52.258;21.052;2023-01-08T14:34:22;44.42;;;19.13;;
65996;SDS011;52765;52.258;21.052;2023-01-08T14:36:54;38.40;;;16.85;;
65996;SDS011;52765;52.258;21.052;2023-01-08T14:39:31;38.33;;;17.00;;
65996;SDS011;52765;52.258;21.052;2023-01-08T14:42:04;41.63;;;17.33;;
65996;SDS011;52765;52.258;21.052;2023-01-08T14:47:48;42.83;;;19.05;;
65996;SDS011;52765;52.258;21.052;2023-01-08T14:50:25;43.97;;;18.17;;
65996;SDS011;52765;52.258;21.052;2023-01-08T14:52:58;40.13;;;19.33;;
65996;SDS011;52765;52.258;21.052;2023-01-08T14:55:49;42.10;;;19.80;;
65996;SDS011;52765;52.258;21.052;2023-01-08T14:58:21;41.13;;;18.00;;
65996;SDS011;52765;52.258;21.052;2023-01-08T15:00:56;35.85;;;16.33;;
65996;SDS011;52765;52.258;21.052;2023-01-08T15:05:59;32.80;;;15.50;;
65996;SDS011;52765;52.258;21.052;2023-01-08T15:13:45;39.22;;;18.02;;
65996;SDS011;52765;52.258;21.052;2023-01-08T15:16:28;38.58;;;17.17;;
65996;SDS011;52765;52.258;21.052;2023-01-08T15:21:32;37.58;;;17.38;;
65996;SDS011;52765;52.258;21.052;2023-01-08T15:24:04;37.20;;;16.80;;
65996;SDS011;52765;52.258;21.052;2023-01-08T15:26:32;44.47;;;17.90;;
65996;SDS011;52765;52.258;21.052;2023-01-08T15:28:59;41.97;;;18.95;;
65996;SDS011;52765;52.258;21.052;2023-01-08T15:31:30;36.40;;;16.70;;
65996;SDS011;52765;52.258;21.052;2023-01-08T15:34:06;36.00;;;16.55;;
65996;SDS011;52765;52.258;21.052;2023-01-08T15:36:32;38.38;;;16.88;;
65996;SDS011;52765;52.258;21.052;2023-01-08T15:39:04;36.50;;;17.08;;
65996;SDS011;52765;52.258;21.052;2023-01-08T15:41:37;36.35;;;16.73;;
65996;SDS011;52765;52.258;21.052;2023-01-08T15:44:25;32.63;;;14.85;;
65996;SDS011;52765;52.258;21.052;2023-01-08T15:46:56;34.25;;;16.27;;
65996;SDS011;52765;52.258;21.052;2023-01-08T15:49:23;32.75;;;16.50;;
65996;SDS011;52765;52.258;21.052;2023-01-08T15:51:54;39.83;;;16.67;;
65996;SDS011;52765;52.258;21.052;2023-01-08T15:54:22;34.85;;;17.30;;
65996;SDS011;52765;52.258;21.052;2023-01-08T15:56:50;35.10;;;16.58;;
65996;SDS011;52765;52.258;21.052;2023-01-08T15:59:23;38.22;;;17.95;;
65996;SDS011;52765;52.258;21.052;2023-01-08T16:01:49;33.40;;;17.13;;
65996;SDS011;52765;52.258;21.052;2023-01-08T16:04:17;42.22;;;18.50;;
65996;SDS011;52765;52.258;21.052;2023-01-08T16:06:50;33.97;;;15.98;;